Friday, January 19, 2018, 7:39 AM GMT
Back to Local

CWWE, Western Head, N. S.

Location: , , Canada Lat: 43.983
Local Time: 7:39 AM GMT ( 7:39 GMT) Lon: -64.667
Time Zone: GMT Elev: 29 ft

Show me the last for .
Show Coded

Time T Td Feel RH Dir Speed Gust Alt SLP Vis Weather Sky Remarks
2018-01-19 07:00 21 19 10 94 330° 10 - - 29.79 0 None
2018-01-19 06:00 22 21 14 94 360° 7 - - 29.78 0 None
2018-01-19 05:00 24 22 15 94 350° 8 - - 29.77 0 None
2018-01-19 04:00 26 22 17 84 350° 8 - - 29.77 0 None
2018-01-19 03:00 25 23 14 92 350° 10 - - 29.77 0 None
2018-01-19 02:00 26 24 18 90 350° 8 - - 29.78 0 None
2018-01-19 01:00 27 26 20 95 350° 6 - - 29.79 0 None
2018-01-19 00:00 28 26 22 91 340° 6 - - 29.78 0 None
2018-01-18 23:00 30 27 25 89 340° 5 - - 29.77 0 None
2018-01-18 22:00 32 30 26 91 340° 6 - - 29.75 0 None
2018-01-18 21:00 33 31 29 94 340° 5 - - 29.74 0 None
2018-01-18 20:00 35 33 31 90 320° 5 - - 29.75 0 None
2018-01-18 19:00 36 31 31 82 300° 6 - - 29.77 0 None
2018-01-18 17:00 35 32 32 89 220° 3 - - 29.81 0 1-hr Precip Total: 0.01"
2018-01-18 16:00 35 32 - 87 260° 2 - - 29.84 0 None
2018-01-18 15:00 35 34 32 97 350° 3 - - 29.86 0 None
2018-01-18 14:00 32 32 26 100 320° 7 - - 29.88 0 None
2018-01-18 13:00 31 31 24 100 320° 8 - - 29.88 0 None
2018-01-18 12:00 31 - 27 0 330° 5 - - 29.87 0 None
2018-01-18 11:00 32 - - 0 290° 2 - - 29.87 0 None
2018-01-18 10:00 32 - 25 0 310° 7 - - 29.85 0 None
2018-01-18 09:00 32 - 25 0 330° 7 - - 29.83 0 None
2018-01-18 08:00 32 - 25 0 310° 8 - - 29.86 0 None

Support USWX by starting your Amazon purchase here.